createdAt,value
2023-01-02T00:00:08.439Z,13.86
2023-01-02T00:05:13.781Z,13.94
2023-01-02T00:10:15.301Z,14.30
2023-01-02T00:15:17.061Z,14.34
2023-01-02T00:20:18.871Z,14.45
2023-01-02T00:25:20.366Z,14.67
2023-01-02T00:30:22.199Z,14.84
2023-01-02T00:35:23.751Z,14.73
2023-01-02T00:40:25.558Z,14.61
2023-01-02T00:45:27.702Z,14.49
2023-01-02T00:50:29.227Z,14.58
2023-01-02T00:55:30.748Z,14.64
2023-01-02T01:00:32.472Z,14.67
2023-01-02T01:05:34.058Z,14.76
2023-01-02T01:10:37.007Z,14.74
2023-01-02T01:15:38.995Z,14.66
2023-01-02T01:20:40.580Z,14.63
2023-01-02T01:25:42.089Z,14.48
2023-01-02T01:30:43.600Z,14.65
2023-01-02T01:35:45.168Z,14.58
2023-01-02T01:40:46.792Z,14.54
2023-01-02T01:45:48.384Z,14.67
2023-01-02T01:50:49.959Z,14.61
2023-01-02T01:55:55.299Z,14.65
2023-01-02T02:00:57.328Z,14.58
2023-01-02T02:06:00.197Z,14.69
2023-01-02T02:11:02.841Z,14.74
2023-01-02T02:16:10.447Z,14.68
2023-01-02T02:21:44.969Z,14.67
2023-01-02T02:27:08.217Z,14.72
2023-01-02T02:32:21.989Z,14.74
2023-01-02T02:37:23.472Z,14.58
2023-01-02T02:43:00.601Z,14.64
2023-01-02T02:48:56.410Z,14.72
2023-01-02T02:54:08.998Z,14.60
2023-01-02T02:59:11.907Z,14.49
2023-01-02T03:04:21.472Z,14.48
2023-01-02T03:09:58.148Z,14.31
2023-01-02T03:15:21.574Z,14.80
2023-01-02T03:20:28.622Z,14.66
2023-01-02T03:25:33.029Z,14.56
2023-01-02T03:30:38.213Z,14.76
2023-01-02T03:35:49.658Z,14.57
2023-01-02T03:41:18.481Z,14.45
2023-01-02T03:46:34.656Z,14.59
2023-01-02T03:51:36.214Z,14.40
2023-01-02T03:56:56.067Z,14.45
2023-01-02T04:02:04.668Z,14.58
2023-01-02T04:07:11.874Z,14.75
2023-01-02T04:12:17.435Z,14.72
2023-01-02T04:17:22.555Z,14.63
2023-01-02T04:22:30.224Z,14.68
2023-01-02T04:27:57.483Z,14.49
2023-01-02T04:33:06.609Z,14.51
2023-01-02T04:38:10.455Z,14.69
2023-01-02T04:43:20.838Z,14.73
2023-01-02T04:48:22.365Z,14.71
2023-01-02T04:53:23.850Z,14.64
2023-01-02T04:58:25.539Z,14.57
2023-01-02T05:03:27.156Z,14.60
2023-01-02T05:08:29.396Z,14.82
2023-01-02T05:13:30.886Z,14.95
2023-01-02T05:18:32.622Z,15.15
2023-01-02T05:23:35.009Z,15.10
2023-01-02T05:28:38.761Z,14.94
2023-01-02T05:33:40.544Z,15.02
2023-01-02T05:38:42.047Z,14.74
2023-01-02T05:43:43.552Z,14.64
2023-01-02T05:48:45.923Z,14.94
2023-01-02T05:53:47.795Z,15.02
2023-01-02T05:58:50.278Z,14.72
2023-01-02T06:03:57.300Z,14.86
2023-01-02T06:09:00.001Z,15.02
2023-01-02T06:14:01.750Z,15.23
2023-01-02T06:19:04.610Z,15.35
2023-01-02T06:24:06.312Z,15.31
2023-01-02T06:29:08.962Z,15.40
2023-01-02T06:34:10.561Z,15.38
2023-01-02T06:39:12.089Z,15.47
2023-01-02T06:44:13.749Z,15.43
2023-01-02T06:49:15.289Z,15.59
2023-01-02T06:54:16.833Z,15.48
2023-01-02T06:59:18.332Z,15.48
2023-01-02T07:04:19.893Z,15.39
2023-01-02T07:09:22.540Z,15.25
2023-01-02T07:14:25.007Z,15.32
2023-01-02T07:19:26.500Z,15.35
2023-01-02T07:24:27.996Z,15.27
2023-01-02T07:29:29.615Z,15.21
2023-01-02T07:34:31.152Z,15.15
2023-01-02T07:39:32.757Z,15.04
2023-01-02T07:44:34.390Z,15.08
2023-01-02T07:49:36.084Z,14.98
2023-01-02T07:54:38.021Z,14.93
2023-01-02T07:59:39.588Z,14.86
2023-01-02T08:04:41.139Z,14.88
2023-01-02T08:09:43.065Z,15.04
2023-01-02T08:14:44.601Z,15.04
2023-01-02T08:19:46.286Z,14.95
2023-01-02T08:24:47.869Z,14.93
2023-01-02T08:29:49.438Z,14.19
2023-01-02T08:34:51.096Z,13.92
2023-01-02T08:39:52.710Z,13.55
2023-01-02T08:44:54.258Z,13.36
2023-01-02T08:49:55.821Z,13.26
2023-01-02T08:54:57.401Z,13.30
2023-01-02T08:59:59.019Z,13.40
2023-01-02T09:05:00.627Z,13.42
2023-01-02T09:10:02.259Z,13.39
2023-01-02T09:15:04.899Z,13.32
2023-01-02T09:20:06.792Z,13.34
2023-01-02T09:25:08.723Z,13.33
2023-01-02T09:30:10.724Z,13.28
2023-01-02T09:35:12.258Z,13.20
2023-01-02T09:40:14.167Z,13.11
2023-01-02T09:45:15.881Z,13.08
2023-01-02T09:50:27.841Z,13.19
2023-01-02T09:55:42.407Z,13.24
2023-01-02T10:00:49.768Z,13.16
2023-01-02T10:06:15.249Z,13.12
2023-01-02T10:11:47.836Z,13.12
2023-01-02T10:16:54.006Z,13.13
2023-01-02T10:21:57.643Z,13.26
2023-01-02T10:27:01.647Z,13.22
2023-01-02T10:32:18.228Z,13.21
2023-01-02T10:37:20.048Z,13.13
2023-01-02T10:42:21.828Z,12.96
2023-01-02T10:47:35.876Z,13.06
2023-01-02T10:52:46.826Z,13.03
2023-01-02T10:57:48.941Z,12.99
2023-01-02T11:02:59.714Z,12.93
2023-01-02T11:08:11.202Z,12.85
2023-01-02T11:13:15.856Z,12.93
2023-01-02T11:18:28.234Z,12.98
2023-01-02T11:23:42.177Z,13.00
2023-01-02T11:28:43.852Z,13.05
2023-01-02T11:33:46.840Z,13.11
2023-01-02T11:38:55.771Z,13.04
2023-01-02T11:43:59.262Z,13.15
2023-01-02T11:49:05.427Z,13.09
2023-01-02T11:54:13.609Z,12.99
2023-01-02T11:59:32.319Z,12.95
2023-01-02T12:04:33.913Z,12.81
2023-01-02T12:09:49.941Z,12.75
2023-01-02T12:15:00.718Z,12.76
2023-01-02T12:20:28.019Z,12.83
2023-01-02T12:25:34.853Z,12.86
2023-01-02T12:30:47.043Z,12.88
2023-01-02T12:36:03.606Z,12.85
2023-01-02T12:41:14.230Z,12.70
2023-01-02T12:46:34.612Z,12.73
2023-01-02T12:52:17.791Z,12.64
2023-01-02T12:57:31.351Z,12.34
2023-01-02T13:03:10.501Z,12.32
2023-01-02T13:08:28.862Z,12.24
2023-01-02T13:13:34.911Z,12.38
2023-01-02T13:19:01.275Z,12.14
2023-01-02T13:24:03.877Z,11.93
2023-01-02T13:29:08.313Z,11.86
2023-01-02T13:34:16.308Z,11.94
2023-01-02T13:39:29.497Z,12.09
2023-01-02T13:44:34.931Z,12.09
2023-01-02T13:49:36.659Z,12.14
2023-01-02T13:54:38.430Z,12.14
2023-01-02T14:00:11.000Z,12.18
2023-01-02T14:05:51.303Z,12.01
2023-01-02T14:11:01.900Z,12.02
2023-01-02T14:16:28.854Z,11.99
2023-01-02T14:21:36.812Z,11.98
2023-01-02T14:26:41.636Z,11.90
2023-01-02T14:31:44.036Z,11.91
2023-01-02T14:36:49.422Z,11.90
2023-01-02T14:41:50.939Z,11.84
2023-01-02T14:46:52.871Z,11.84
2023-01-02T14:52:05.352Z,11.94
2023-01-02T14:57:32.745Z,11.74
2023-01-02T15:02:39.694Z,11.77
2023-01-02T15:07:46.673Z,11.77
2023-01-02T15:12:58.442Z,11.71
2023-01-02T15:18:25.629Z,11.74
2023-01-02T15:23:27.411Z,11.59
2023-01-02T15:28:32.140Z,11.52
2023-01-02T15:33:34.306Z,11.42
2023-01-02T15:38:35.990Z,11.48
2023-01-02T15:43:39.323Z,11.50
2023-01-02T15:48:43.014Z,11.51
2023-01-02T15:54:01.517Z,11.37
2023-01-02T15:59:29.801Z,11.28
2023-01-02T16:04:33.526Z,11.27
2023-01-02T16:09:35.277Z,11.29
2023-01-02T16:14:44.270Z,11.24
2023-01-02T16:19:59.216Z,11.31
2023-01-02T16:25:06.052Z,11.26
2023-01-02T16:30:25.803Z,11.42
2023-01-02T16:35:30.701Z,11.43
2023-01-02T16:41:00.554Z,11.34
2023-01-02T16:46:10.782Z,11.34
2023-01-02T16:51:13.984Z,11.34
2023-01-02T16:56:16.096Z,11.27
2023-01-02T17:01:18.685Z,11.25
2023-01-02T17:06:20.500Z,11.29
2023-01-02T17:11:24.508Z,11.31
2023-01-02T17:16:26.072Z,11.25
2023-01-02T17:21:32.495Z,11.21
2023-01-02T17:26:34.743Z,11.26
2023-01-02T17:31:37.206Z,11.28
2023-01-02T17:36:38.748Z,11.08
2023-01-02T17:41:43.313Z,11.11
2023-01-02T17:47:15.578Z,11.20
2023-01-02T17:52:08.716Z,11.20
2023-01-02T17:57:10.709Z,11.21
2023-01-02T18:02:18.177Z,11.24
2023-01-02T18:07:19.766Z,11.11
2023-01-02T18:12:21.572Z,10.97
2023-01-02T18:17:30.080Z,11.15
2023-01-02T18:22:32.064Z,11.20
2023-01-02T18:27:33.644Z,11.06
2023-01-02T18:32:37.855Z,11.05
2023-01-02T18:37:41.216Z,10.90
2023-01-02T18:42:44.848Z,10.66
2023-01-02T18:47:49.248Z,10.68
2023-01-02T18:52:51.685Z,10.56
2023-01-02T18:58:01.154Z,10.33
2023-01-02T19:03:08.831Z,10.48
2023-01-02T19:08:13.308Z,10.39
2023-01-02T19:13:19.710Z,10.06
2023-01-02T19:18:38.878Z,10.06
2023-01-02T19:24:22.320Z,10.02
2023-01-02T19:29:31.036Z,9.95
2023-01-02T19:34:43.375Z,9.73
2023-01-02T19:39:55.685Z,9.78
2023-01-02T19:45:03.603Z,10.03
2023-01-02T19:50:08.818Z,10.53
2023-01-02T19:55:11.570Z,10.66
2023-01-02T20:00:15.278Z,10.79
2023-01-02T20:05:22.550Z,10.84
2023-01-02T20:10:25.492Z,11.02
2023-01-02T20:15:28.339Z,10.83
2023-01-02T20:20:30.072Z,10.77
2023-01-02T20:25:31.616Z,10.66
2023-01-02T20:30:33.284Z,10.50
2023-01-02T20:35:34.807Z,10.42
2023-01-02T20:40:36.374Z,10.02
2023-01-02T20:45:38.013Z,9.95
2023-01-02T20:50:39.773Z,9.89
2023-01-02T20:55:41.548Z,9.98
2023-01-02T21:00:43.174Z,9.71
2023-01-02T21:05:44.749Z,9.64
2023-01-02T21:10:46.293Z,9.59
2023-01-02T21:15:49.397Z,9.55
2023-01-02T21:20:54.654Z,9.61
2023-01-02T21:25:56.787Z,9.53
2023-01-02T21:30:58.522Z,9.27
2023-01-02T21:36:01.852Z,9.23
2023-01-02T21:41:03.636Z,9.23
2023-01-02T21:46:05.443Z,9.42
2023-01-02T21:51:07.356Z,9.63
2023-01-02T21:56:09.059Z,9.65
2023-01-02T22:01:10.722Z,9.69
2023-01-02T22:06:12.344Z,9.60
2023-01-02T22:11:14.024Z,9.62
2023-01-02T22:16:15.741Z,9.73
2023-01-02T22:21:17.390Z,9.58
2023-01-02T22:26:19.199Z,9.51
2023-01-02T22:31:20.865Z,9.29
2023-01-02T22:36:23.166Z,9.53
2023-01-02T22:41:25.580Z,9.61
2023-01-02T22:46:36.141Z,9.85
2023-01-02T22:52:06.030Z,9.46
2023-01-02T22:56:59.370Z,9.17
2023-01-02T23:02:01.100Z,9.25
2023-01-02T23:07:23.360Z,9.24
2023-01-02T23:12:24.171Z,9.17
2023-01-02T23:17:25.726Z,9.14
2023-01-02T23:22:27.293Z,9.28
2023-01-02T23:27:28.839Z,9.41
2023-01-02T23:32:30.506Z,9.54
2023-01-02T23:37:32.168Z,9.41
2023-01-02T23:42:33.733Z,9.04
2023-01-02T23:47:35.343Z,8.86
2023-01-02T23:52:37.089Z,8.83
2023-01-02T23:57:38.679Z,8.84
